Westerland, Germany

9:58 AM CET on November 26, 2014 (GMT +0100)
Westerland / Sylt | Change Station
CLOSE
Current Station
Airport
Location: Westerland,
Elevation: 49 ft
Nearby Weather Stations

Elev 49 ft 54.91 °N, 8.34 °E | Updated 8 minutes ago

Clear
Clear
37 °F
Feels Like 28 °F
N
15
Wind Variable Wind from ESE

Today
High -- | Low -- °F
--% Chance of Precip.
Yesterday
High -- | Low -- °F
Precip. -- in
8:18 AM 4:08 PM
Waxing Crescent, 18% visible
Pressure 30.21 in
Visibility 5.0 miles
Clouds
Windchill 28 °F
Dew Point 36 °F
Humidity 93%
Rainfall 0.00 in
Snow Depth Not available.
UV Not available.
Pollen Not available.
Air Quality Not available.
Flu Activity Not available.
METAR EDXW 260850Z 11013KT 8000 NSC 03/02 Q1023 RMK ATIS DEL

More Conditions Fewer Conditions

Pressure 30.21 in
Visibility 5.0 miles
Clouds
Windchill 28 °F
Dew Point 36 °F
Humidity 93%
Rainfall 0.00 in
Snow Depth Not available.
UV Not available.
Pollen Not available.
Air Quality Not available.
Flu Activity Not available.
METAR EDXW 260850Z 11013KT 8000 NSC 03/02 Q1023 RMK ATIS DEL

More Conditions Fewer Conditions

10-Day Weather Forecast

Almanac

Astronomy

Nov. 26, 2014 Rise Set
Actual Time
Civil Twilight
Nautical Twilight
Astronomical Twilight
Moon
Length of Visible Light
Length of Day
Tomorrow will be .
, % of the Moon is Illuminated

Today's Extremes

Country Highs Country Lows

Community

WunderPhotos

Upload Photos

1,773,694 photos uploaded!

WunderBlogs® & News

Nearby

Air Quality

  Air Quality AQ Index Pollutant
Not available.

Snow Depth

Station Depth Elevation

Earthquake Activity

City Distance Mag. Time & Date
Minimum magnitude displayed is 2.5.

Coastal Water Temperatures

Place Temperature

Nearby Weather Stations